sensor_id;sensor_type;location;lat;lon;timestamp;P1;durP1;ratioP1;P2;durP2;ratioP2
63621;SDS011;49770;47.544;19.074;2023-05-08T04:13:12;6.78;;;3.78;;
63621;SDS011;49770;47.544;19.074;2023-05-08T04:16:26;5.70;;;3.80;;
63621;SDS011;49770;47.544;19.074;2023-05-08T04:19:45;5.22;;;4.10;;
63621;SDS011;49770;47.544;19.074;2023-05-08T04:22:56;3.97;;;3.58;;
63621;SDS011;49770;47.544;19.074;2023-05-08T04:26:03;3.80;;;3.40;;
63621;SDS011;49770;47.544;19.074;2023-05-08T04:29:13;3.40;;;3.10;;
63621;SDS011;49770;47.544;19.074;2023-05-08T04:32:22;3.33;;;2.97;;
63621;SDS011;49770;47.544;19.074;2023-05-08T04:35:32;3.27;;;3.00;;
63621;SDS011;49770;47.544;19.074;2023-05-08T04:38:39;4.35;;;3.37;;
63621;SDS011;49770;47.544;19.074;2023-05-08T04:41:48;2.92;;;2.67;;
63621;SDS011;49770;47.544;19.074;2023-05-08T04:44:56;5.12;;;3.20;;
63621;SDS011;49770;47.544;19.074;2023-05-08T04:48:05;3.80;;;3.00;;
63621;SDS011;49770;47.544;19.074;2023-05-08T04:51:12;3.15;;;2.85;;
63621;SDS011;49770;47.544;19.074;2023-05-08T04:54:18;2.97;;;2.67;;
63621;SDS011;49770;47.544;19.074;2023-05-08T04:57:25;3.47;;;2.70;;
63621;SDS011;49770;47.544;19.074;2023-05-08T05:00:35;3.20;;;2.90;;
63621;SDS011;49770;47.544;19.074;2023-05-08T05:03:44;3.62;;;3.10;;
63621;SDS011;49770;47.544;19.074;2023-05-08T05:06:51;4.18;;;2.75;;
63621;SDS011;49770;47.544;19.074;2023-05-08T05:09:58;5.32;;;2.80;;
63621;SDS011;49770;47.544;19.074;2023-05-08T05:13:08;3.00;;;2.70;;
63621;SDS011;49770;47.544;19.074;2023-05-08T05:16:15;2.80;;;2.30;;
63621;SDS011;49770;47.544;19.074;2023-05-08T05:19:26;2.65;;;2.45;;
63621;SDS011;49770;47.544;19.074;2023-05-08T05:22:35;2.92;;;2.70;;
63621;SDS011;49770;47.544;19.074;2023-05-08T05:25:44;2.75;;;2.55;;
63621;SDS011;49770;47.544;19.074;2023-05-08T05:28:52;2.65;;;2.40;;
63621;SDS011;49770;47.544;19.074;2023-05-08T05:32:00;2.92;;;2.42;;
63621;SDS011;49770;47.544;19.074;2023-05-08T05:35:08;3.25;;;2.60;;
63621;SDS011;49770;47.544;19.074;2023-05-08T05:38:32;2.78;;;2.58;;
63621;SDS011;49770;47.544;19.074;2023-05-08T05:41:41;2.55;;;2.35;;
63621;SDS011;49770;47.544;19.074;2023-05-08T05:44:49;5.07;;;2.50;;
63621;SDS011;49770;47.544;19.074;2023-05-08T05:47:55;2.30;;;2.10;;
63621;SDS011;49770;47.544;19.074;2023-05-08T05:51:00;2.58;;;2.20;;
63621;SDS011;49770;47.544;19.074;2023-05-08T05:54:06;2.35;;;2.15;;
63621;SDS011;49770;47.544;19.074;2023-05-08T05:57:13;6.93;;;2.40;;
63621;SDS011;49770;47.544;19.074;2023-05-08T06:00:21;3.33;;;2.22;;
63621;SDS011;49770;47.544;19.074;2023-05-08T06:03:28;2.58;;;2.17;;
63621;SDS011;49770;47.544;19.074;2023-05-08T06:06:36;4.03;;;2.25;;
63621;SDS011;49770;47.544;19.074;2023-05-08T06:09:40;2.12;;;1.92;;
63621;SDS011;49770;47.544;19.074;2023-05-08T06:12:45;2.72;;;2.22;;
63621;SDS011;49770;47.544;19.074;2023-05-08T06:15:49;1.98;;;1.87;;
63621;SDS011;49770;47.544;19.074;2023-05-08T06:18:53;2.75;;;2.10;;
63621;SDS011;49770;47.544;19.074;2023-05-08T06:21:59;4.82;;;2.30;;
63621;SDS011;49770;47.544;19.074;2023-05-08T06:25:02;1.87;;;1.77;;
63621;SDS011;49770;47.544;19.074;2023-05-08T06:28:09;2.28;;;1.83;;
63621;SDS011;49770;47.544;19.074;2023-05-08T06:31:16;2.20;;;2.00;;
63621;SDS011;49770;47.544;19.074;2023-05-08T06:34:21;2.00;;;1.80;;
63621;SDS011;49770;47.544;19.074;2023-05-08T06:37:26;3.12;;;2.00;;
63621;SDS011;49770;47.544;19.074;2023-05-08T06:40:32;2.05;;;1.90;;
63621;SDS011;49770;47.544;19.074;2023-05-08T06:43:36;3.72;;;2.20;;
63621;SDS011;49770;47.544;19.074;2023-05-08T06:46:38;2.37;;;2.10;;
63621;SDS011;49770;47.544;19.074;2023-05-08T06:49:42;2.10;;;2.00;;
63621;SDS011;49770;47.544;19.074;2023-05-08T06:52:48;2.67;;;1.87;;
63621;SDS011;49770;47.544;19.074;2023-05-08T06:55:54;3.85;;;2.10;;
63621;SDS011;49770;47.544;19.074;2023-05-08T06:59:04;2.12;;;1.67;;
63621;SDS011;49770;47.544;19.074;2023-05-08T07:02:12;2.50;;;2.30;;
63621;SDS011;49770;47.544;19.074;2023-05-08T07:05:20;1.87;;;1.77;;
63621;SDS011;49770;47.544;19.074;2023-05-08T07:08:24;4.53;;;2.00;;
63621;SDS011;49770;47.544;19.074;2023-05-08T07:11:30;2.42;;;2.00;;
63621;SDS011;49770;47.544;19.074;2023-05-08T07:14:37;5.62;;;1.85;;
63621;SDS011;49770;47.544;19.074;2023-05-08T07:17:43;6.50;;;2.08;;
63621;SDS011;49770;47.544;19.074;2023-05-08T07:20:47;4.03;;;1.80;;
63621;SDS011;49770;47.544;19.074;2023-05-08T07:23:51;1.60;;;1.50;;
63621;SDS011;49770;47.544;19.074;2023-05-08T07:26:56;2.97;;;1.80;;
63621;SDS011;49770;47.544;19.074;2023-05-08T07:30:01;1.87;;;1.70;;
63621;SDS011;49770;47.544;19.074;2023-05-08T07:33:06;1.60;;;1.50;;
63621;SDS011;49770;47.544;19.074;2023-05-08T07:36:12;1.27;;;1.17;;
63621;SDS011;49770;47.544;19.074;2023-05-08T07:39:19;1.80;;;1.20;;
63621;SDS011;49770;47.544;19.074;2023-05-08T07:42:24;2.65;;;1.37;;
63621;SDS011;49770;47.544;19.074;2023-05-08T07:45:28;1.30;;;1.25;;
63621;SDS011;49770;47.544;19.074;2023-05-08T07:48:31;2.35;;;1.40;;
63621;SDS011;49770;47.544;19.074;2023-05-08T07:51:37;4.72;;;1.23;;
63621;SDS011;49770;47.544;19.074;2023-05-08T07:54:42;5.72;;;1.48;;
63621;SDS011;49770;47.544;19.074;2023-05-08T07:57:49;1.87;;;1.50;;
63621;SDS011;49770;47.544;19.074;2023-05-08T08:00:57;5.93;;;1.42;;
63621;SDS011;49770;47.544;19.074;2023-05-08T08:04:05;5.12;;;1.60;;
63621;SDS011;49770;47.544;19.074;2023-05-08T08:07:13;5.40;;;1.87;;
63621;SDS011;49770;47.544;19.074;2023-05-08T08:10:21;2.37;;;1.33;;
63621;SDS011;49770;47.544;19.074;2023-05-08T08:13:24;1.45;;;1.35;;
63621;SDS011;49770;47.544;19.074;2023-05-08T08:16:30;3.53;;;1.60;;
63621;SDS011;49770;47.544;19.074;2023-05-08T08:19:38;4.12;;;1.60;;
63621;SDS011;49770;47.544;19.074;2023-05-08T08:22:47;4.53;;;1.50;;
63621;SDS011;49770;47.544;19.074;2023-05-08T08:25:53;1.40;;;1.30;;
63621;SDS011;49770;47.544;19.074;2023-05-08T08:29:02;1.85;;;1.10;;
63621;SDS011;49770;47.544;19.074;2023-05-08T08:32:08;2.90;;;1.67;;
63621;SDS011;49770;47.544;19.074;2023-05-08T08:35:17;4.37;;;1.40;;
63621;SDS011;49770;47.544;19.074;2023-05-08T08:38:24;2.83;;;1.23;;
63621;SDS011;49770;47.544;19.074;2023-05-08T08:41:32;2.12;;;1.17;;
63621;SDS011;49770;47.544;19.074;2023-05-08T08:44:39;2.25;;;1.15;;
63621;SDS011;49770;47.544;19.074;2023-05-08T08:47:46;1.10;;;0.82;;
63621;SDS011;49770;47.544;19.074;2023-05-08T08:50:57;2.83;;;0.80;;
63621;SDS011;49770;47.544;19.074;2023-05-08T08:54:10;3.70;;;0.98;;
63621;SDS011;49770;47.544;19.074;2023-05-08T08:57:18;2.35;;;1.08;;
63621;SDS011;49770;47.544;19.074;2023-05-08T09:00:27;1.48;;;0.60;;
63621;SDS011;49770;47.544;19.074;2023-05-08T09:03:37;0.80;;;0.80;;
63621;SDS011;49770;47.544;19.074;2023-05-08T09:06:43;4.87;;;0.80;;
63621;SDS011;49770;47.544;19.074;2023-05-08T09:09:48;1.90;;;0.70;;
63621;SDS011;49770;47.544;19.074;2023-05-08T09:12:53;1.40;;;0.90;;
63621;SDS011;49770;47.544;19.074;2023-05-08T09:15:57;3.47;;;0.90;;
63621;SDS011;49770;47.544;19.074;2023-05-08T09:19:03;3.95;;;0.65;;
63621;SDS011;49770;47.544;19.074;2023-05-08T09:22:09;0.65;;;0.60;;
63621;SDS011;49770;47.544;19.074;2023-05-08T09:25:18;1.42;;;0.62;;
63621;SDS011;49770;47.544;19.074;2023-05-08T09:28:24;9.88;;;0.75;;
63621;SDS011;49770;47.544;19.074;2023-05-08T09:31:33;2.10;;;0.80;;
63621;SDS011;49770;47.544;19.074;2023-05-08T09:37:44;3.08;;;0.90;;
63621;SDS011;49770;47.544;19.074;2023-05-08T09:41:04;2.33;;;0.65;;
63621;SDS011;49770;47.544;19.074;2023-05-08T09:44:19;0.88;;;0.62;;
63621;SDS011;49770;47.544;19.074;2023-05-08T09:47:23;0.88;;;0.57;;
63621;SDS011;49770;47.544;19.074;2023-05-08T09:50:28;1.45;;;0.70;;
63621;SDS011;49770;47.544;19.074;2023-05-08T09:53:31;0.60;;;0.60;;
63621;SDS011;49770;47.544;19.074;2023-05-08T09:56:35;1.25;;;0.80;;
63621;SDS011;49770;47.544;19.074;2023-05-08T09:59:41;3.37;;;1.10;;
63621;SDS011;49770;47.544;19.074;2023-05-08T10:02:57;1.90;;;0.90;;
63621;SDS011;49770;47.544;19.074;2023-05-08T10:06:11;1.12;;;0.88;;
63621;SDS011;49770;47.544;19.074;2023-05-08T10:09:20;0.77;;;0.77;;
63621;SDS011;49770;47.544;19.074;2023-05-08T10:12:24;1.15;;;0.77;;
63621;SDS011;49770;47.544;19.074;2023-05-08T10:15:28;0.90;;;0.85;;
63621;SDS011;49770;47.544;19.074;2023-05-08T10:18:39;0.80;;;0.80;;
63621;SDS011;49770;47.544;19.074;2023-05-08T10:21:53;0.57;;;0.57;;
63621;SDS011;49770;47.544;19.074;2023-05-08T10:24:59;1.67;;;0.68;;
63621;SDS011;49770;47.544;19.074;2023-05-08T10:28:17;2.33;;;1.45;;
63621;SDS011;49770;47.544;19.074;2023-05-08T10:31:36;1.45;;;0.90;;
63621;SDS011;49770;47.544;19.074;2023-05-08T10:34:55;1.00;;;0.60;;
63621;SDS011;49770;47.544;19.074;2023-05-08T10:38:09;1.50;;;0.60;;
63621;SDS011;49770;47.544;19.074;2023-05-08T10:41:15;3.25;;;0.75;;
63621;SDS011;49770;47.544;19.074;2023-05-08T10:44:24;0.60;;;0.60;;
63621;SDS011;49770;47.544;19.074;2023-05-08T10:48:21;1.48;;;0.75;;
63621;SDS011;49770;47.544;19.074;2023-05-08T10:51:19;2.35;;;0.70;;
63621;SDS011;49770;47.544;19.074;2023-05-08T10:54:47;4.07;;;0.82;;
63621;SDS011;49770;47.544;19.074;2023-05-08T11:01:19;2.08;;;0.80;;
63621;SDS011;49770;47.544;19.074;2023-05-08T11:04:23;1.00;;;0.90;;
63621;SDS011;49770;47.544;19.074;2023-05-08T11:07:29;0.80;;;0.80;;
63621;SDS011;49770;47.544;19.074;2023-05-08T11:14:11;1.87;;;0.75;;
63621;SDS011;49770;47.544;19.074;2023-05-08T11:17:22;1.42;;;0.90;;
63621;SDS011;49770;47.544;19.074;2023-05-08T11:20:36;0.80;;;0.80;;
63621;SDS011;49770;47.544;19.074;2023-05-08T11:23:41;1.00;;;0.70;;
63621;SDS011;49770;47.544;19.074;2023-05-08T11:26:47;6.30;;;0.70;;
63621;SDS011;49770;47.544;19.074;2023-05-08T11:33:25;1.75;;;0.55;;
63621;SDS011;49770;47.544;19.074;2023-05-08T11:39:38;0.60;;;0.60;;
63621;SDS011;49770;47.544;19.074;2023-05-08T11:42:44;0.60;;;0.60;;
63621;SDS011;49770;47.544;19.074;2023-05-08T11:45:47;1.70;;;0.90;;
63621;SDS011;49770;47.544;19.074;2023-05-08T11:48:57;0.73;;;0.73;;
63621;SDS011;49770;47.544;19.074;2023-05-08T11:52:03;0.85;;;0.73;;
63621;SDS011;49770;47.544;19.074;2023-05-08T11:55:09;1.15;;;0.50;;
63621;SDS011;49770;47.544;19.074;2023-05-08T11:58:15;1.87;;;0.80;;
63621;SDS011;49770;47.544;19.074;2023-05-08T12:01:20;1.05;;;0.62;;
63621;SDS011;49770;47.544;19.074;2023-05-08T12:04:25;4.43;;;0.73;;
63621;SDS011;49770;47.544;19.074;2023-05-08T12:07:28;0.57;;;0.57;;
63621;SDS011;49770;47.544;19.074;2023-05-08T12:13:49;0.75;;;0.60;;
63621;SDS011;49770;47.544;19.074;2023-05-08T12:16:54;1.98;;;0.80;;
63621;SDS011;49770;47.544;19.074;2023-05-08T12:20:08;0.68;;;0.55;;
63621;SDS011;49770;47.544;19.074;2023-05-08T12:23:12;0.73;;;0.60;;
63621;SDS011;49770;47.544;19.074;2023-05-08T12:26:16;0.90;;;0.70;;
63621;SDS011;49770;47.544;19.074;2023-05-08T12:29:20;0.62;;;0.62;;
63621;SDS011;49770;47.544;19.074;2023-05-08T12:32:24;0.70;;;0.70;;
63621;SDS011;49770;47.544;19.074;2023-05-08T12:35:31;1.23;;;0.68;;
63621;SDS011;49770;47.544;19.074;2023-05-08T12:38:35;0.70;;;0.70;;
63621;SDS011;49770;47.544;19.074;2023-05-08T12:41:41;0.70;;;0.62;;
63621;SDS011;49770;47.544;19.074;2023-05-08T12:44:52;0.77;;;0.68;;
63621;SDS011;49770;47.544;19.074;2023-05-08T12:48:00;1.15;;;0.70;;
63621;SDS011;49770;47.544;19.074;2023-05-08T12:51:06;0.98;;;0.75;;
63621;SDS011;49770;47.544;19.074;2023-05-08T12:54:10;0.70;;;0.70;;
63621;SDS011;49770;47.544;19.074;2023-05-08T12:57:18;3.08;;;0.98;;
63621;SDS011;49770;47.544;19.074;2023-05-08T13:00:23;3.22;;;0.90;;
63621;SDS011;49770;47.544;19.074;2023-05-08T13:03:30;1.45;;;1.25;;
63621;SDS011;49770;47.544;19.074;2023-05-08T13:09:58;1.10;;;1.00;;
63621;SDS011;49770;47.544;19.074;2023-05-08T13:13:06;0.90;;;0.90;;
63621;SDS011;49770;47.544;19.074;2023-05-08T13:16:12;1.10;;;0.93;;
63621;SDS011;49770;47.544;19.074;2023-05-08T13:19:18;1.48;;;1.00;;
63621;SDS011;49770;47.544;19.074;2023-05-08T13:25:59;1.48;;;1.20;;
63621;SDS011;49770;47.544;19.074;2023-05-08T13:29:06;1.17;;;0.82;;
63621;SDS011;49770;47.544;19.074;2023-05-08T13:32:12;1.73;;;1.00;;
63621;SDS011;49770;47.544;19.074;2023-05-08T13:35:18;1.50;;;1.25;;
63621;SDS011;49770;47.544;19.074;2023-05-08T13:38:24;2.72;;;1.00;;
63621;SDS011;49770;47.544;19.074;2023-05-08T13:41:31;2.67;;;1.70;;
63621;SDS011;49770;47.544;19.074;2023-05-08T13:44:38;1.40;;;1.05;;
63621;SDS011;49770;47.544;19.074;2023-05-08T13:47:46;1.85;;;0.88;;
63621;SDS011;49770;47.544;19.074;2023-05-08T13:50:54;1.08;;;1.08;;
63621;SDS011;49770;47.544;19.074;2023-05-08T13:53:57;1.27;;;0.90;;
63621;SDS011;49770;47.544;19.074;2023-05-08T13:57:01;1.50;;;1.05;;
63621;SDS011;49770;47.544;19.074;2023-05-08T14:00:11;1.87;;;1.17;;
63621;SDS011;49770;47.544;19.074;2023-05-08T14:03:18;1.85;;;1.00;;
63621;SDS011;49770;47.544;19.074;2023-05-08T14:06:22;2.12;;;0.90;;
63621;SDS011;49770;47.544;19.074;2023-05-08T14:09:28;6.80;;;1.15;;
63621;SDS011;49770;47.544;19.074;2023-05-08T14:12:36;1.20;;;1.10;;
63621;SDS011;49770;47.544;19.074;2023-05-08T14:15:45;2.33;;;1.00;;
63621;SDS011;49770;47.544;19.074;2023-05-08T14:18:53;1.05;;;0.98;;
63621;SDS011;49770;47.544;19.074;2023-05-08T14:22:01;1.05;;;0.90;;
63621;SDS011;49770;47.544;19.074;2023-05-08T14:25:07;1.30;;;1.00;;
63621;SDS011;49770;47.544;19.074;2023-05-08T14:28:16;1.12;;;1.00;;
63621;SDS011;49770;47.544;19.074;2023-05-08T14:31:24;1.73;;;1.08;;
63621;SDS011;49770;47.544;19.074;2023-05-08T14:34:31;1.75;;;0.80;;
63621;SDS011;49770;47.544;19.074;2023-05-08T14:37:39;0.93;;;0.80;;
63621;SDS011;49770;47.544;19.074;2023-05-08T14:40:50;2.97;;;1.20;;
63621;SDS011;49770;47.544;19.074;2023-05-08T14:44:00;1.67;;;0.90;;
63621;SDS011;49770;47.544;19.074;2023-05-08T14:47:08;1.30;;;0.98;;
63621;SDS011;49770;47.544;19.074;2023-05-08T14:50:19;1.33;;;0.80;;
63621;SDS011;49770;47.544;19.074;2023-05-08T14:53:28;4.30;;;0.90;;
63621;SDS011;49770;47.544;19.074;2023-05-08T14:56:35;2.17;;;0.80;;
63621;SDS011;49770;47.544;19.074;2023-05-08T15:00:05;3.08;;;0.82;;
63621;SDS011;49770;47.544;19.074;2023-05-08T15:03:14;1.08;;;0.95;;
63621;SDS011;49770;47.544;19.074;2023-05-08T15:06:23;3.58;;;0.93;;
63621;SDS011;49770;47.544;19.074;2023-05-08T15:09:30;2.87;;;1.00;;
63621;SDS011;49770;47.544;19.074;2023-05-08T15:12:35;4.95;;;1.15;;
63621;SDS011;49770;47.544;19.074;2023-05-08T15:15:44;2.12;;;1.02;;
63621;SDS011;49770;47.544;19.074;2023-05-08T15:18:53;0.90;;;0.90;;
63621;SDS011;49770;47.544;19.074;2023-05-08T15:22:02;1.00;;;1.00;;
63621;SDS011;49770;47.544;19.074;2023-05-08T15:25:09;1.30;;;0.90;;
63621;SDS011;49770;47.544;19.074;2023-05-08T15:28:21;2.87;;;1.10;;
63621;SDS011;49770;47.544;19.074;2023-05-08T15:31:32;1.37;;;1.10;;
63621;SDS011;49770;47.544;19.074;2023-05-08T15:34:38;2.05;;;1.05;;
